Neihart, Montana
Current Conditions -  °F | °C
As of 11:56 AM on Friday 24 Oct 2014 (Local Time) from KGFA Reporting Station
Clear Clear  
Wind Chill: 55°   Ceiling: Unl
Heat Index: 55°   Visibility: 10mi
Dew Point: 33°   Wind: 16mph
Humidity: 43%   Direction: 230°SW
Pressure: 30.05"   Gusts: 26mph
Location:  46.93°N, 110.74°W
Report Text: KGFA 241756Z AUTO 23014G23KT 10SM CLR 13/01 A3005 RMK AO2 SLP184 T01270005 10127 20068 50003
Loading
Personal Weather Stations






























Interactive Weather Map
Tropical Storm Tracking
New forecast layout! Learn more

10-Day Weather Forecast

Advertisements
Track Severe Weather on mobile